sensor_id;sensor_type;location;lat;lon;timestamp;pressure;altitude;pressure_sealevel;temperature;humidity
21664;BME280;10993;52.510;13.456;2023-05-09T00:04:18;56362.38;;;-146.93;50.48
21664;BME280;10993;52.510;13.456;2023-05-09T00:09:18;56313.78;;;-146.93;50.61
21664;BME280;10993;52.510;13.456;2023-05-09T00:14:20;56362.38;;;-146.93;51.01
21664;BME280;10993;52.510;13.456;2023-05-09T00:19:21;56400.84;;;-146.93;51.25
21664;BME280;10993;52.510;13.456;2023-05-09T00:24:21;56406.91;;;-146.93;51.74
21664;BME280;10993;52.510;13.456;2023-05-09T00:29:23;56346.19;;;-146.93;51.53
21664;BME280;10993;52.510;13.456;2023-05-09T00:34:23;56334.03;;;-146.93;51.57
21664;BME280;10993;52.510;13.456;2023-05-09T00:39:24;56362.38;;;-146.93;51.84
21664;BME280;10993;52.510;13.456;2023-05-09T00:44:25;56423.13;;;-146.93;51.04
21664;BME280;10993;52.510;13.456;2023-05-09T00:49:26;56419.06;;;-146.93;51.23
21664;BME280;10993;52.510;13.456;2023-05-09T00:54:26;57305.97;;;-146.93;51.12
21664;BME280;10993;52.510;13.456;2023-05-09T00:59:28;56358.31;;;-146.93;51.10
21664;BME280;10993;52.510;13.456;2023-05-09T01:04:28;56376.56;;;-146.93;50.58
21664;BME280;10993;52.510;13.456;2023-05-09T01:09:35;56350.22;;;-146.93;50.45
21664;BME280;10993;52.510;13.456;2023-05-09T01:14:43;56415.03;;;-146.93;49.98
21664;BME280;10993;52.510;13.456;2023-05-09T01:19:55;56184.22;;;-146.93;49.56
21664;BME280;10993;52.510;13.456;2023-05-09T01:25:14;56402.88;;;-146.93;48.90
21664;BME280;10993;52.510;13.456;2023-05-09T01:30:22;56386.66;;;-146.93;48.46
21664;BME280;10993;52.510;13.456;2023-05-09T01:35:25;56408.94;;;-146.93;47.07
21664;BME280;10993;52.510;13.456;2023-05-09T01:40:29;56398.81;;;-146.93;46.74
21664;BME280;10993;52.510;13.456;2023-05-09T01:45:33;56336.06;;;-146.93;46.35
21664;BME280;10993;52.510;13.456;2023-05-09T01:50:35;56386.66;;;-146.93;45.67
21664;BME280;10993;52.510;13.456;2023-05-09T01:55:38;56386.66;;;-146.93;44.79
21664;BME280;10993;52.510;13.456;2023-05-09T02:00:42;56319.84;;;-146.93;44.16
21664;BME280;10993;52.510;13.456;2023-05-09T02:05:43;56354.28;;;-146.93;43.73
21664;BME280;10993;52.510;13.456;2023-05-09T02:10:45;56402.88;;;-146.93;43.87
21664;BME280;10993;52.510;13.456;2023-05-09T02:15:48;56317.84;;;-146.93;43.92
21664;BME280;10993;52.510;13.456;2023-05-09T02:20:48;56413.00;;;-146.93;43.66
21664;BME280;10993;52.510;13.456;2023-05-09T02:25:49;56366.44;;;-146.93;43.52
21664;BME280;10993;52.510;13.456;2023-05-09T02:30:52;56394.78;;;-146.93;43.47
21664;BME280;10993;52.510;13.456;2023-05-09T02:35:54;56415.03;;;-146.93;43.30
21664;BME280;10993;52.510;13.456;2023-05-09T02:40:55;56415.03;;;-146.93;43.06
21664;BME280;10993;52.510;13.456;2023-05-09T02:45:57;56370.47;;;-146.93;42.51
21664;BME280;10993;52.510;13.456;2023-05-09T02:50:57;56350.22;;;-146.93;43.05
21664;BME280;10993;52.510;13.456;2023-05-09T02:55:58;56415.03;;;-146.93;43.12
21664;BME280;10993;52.510;13.456;2023-05-09T03:00:59;56404.91;;;-146.93;43.14
21664;BME280;10993;52.510;13.456;2023-05-09T03:06:00;56352.25;;;-146.93;43.13
21664;BME280;10993;52.510;13.456;2023-05-09T03:11:00;56360.34;;;-146.93;42.98
21664;BME280;10993;52.510;13.456;2023-05-09T03:16:02;56415.03;;;-146.93;43.16
21664;BME280;10993;52.510;13.456;2023-05-09T03:21:03;56406.91;;;-146.93;42.97
21664;BME280;10993;52.510;13.456;2023-05-09T03:26:03;56374.53;;;-146.93;43.25
21664;BME280;10993;52.510;13.456;2023-05-09T03:31:05;56392.75;;;-146.93;43.20
21664;BME280;10993;52.510;13.456;2023-05-09T03:36:06;56421.09;;;-146.93;43.15
21664;BME280;10993;52.510;13.456;2023-05-09T03:41:06;56406.91;;;-146.93;43.12
21664;BME280;10993;52.510;13.456;2023-05-09T03:46:08;56404.91;;;-146.93;43.31
21664;BME280;10993;52.510;13.456;2023-05-09T03:51:08;56406.91;;;-146.93;43.12
21664;BME280;10993;52.510;13.456;2023-05-09T03:56:09;56332.00;;;-146.93;43.04
21664;BME280;10993;52.510;13.456;2023-05-09T04:01:10;56388.69;;;-146.93;43.00
21664;BME280;10993;52.510;13.456;2023-05-09T04:06:11;56406.91;;;-146.93;42.58
21664;BME280;10993;52.510;13.456;2023-05-09T04:11:11;56443.38;;;-146.93;41.05
21664;BME280;10993;52.510;13.456;2023-05-09T04:16:13;56477.78;;;-146.93;38.74
21664;BME280;10993;52.510;13.456;2023-05-09T04:21:13;56481.84;;;-146.93;37.46
21664;BME280;10993;52.510;13.456;2023-05-09T04:26:14;56520.28;;;-146.93;35.89
21664;BME280;10993;52.510;13.456;2023-05-09T04:31:16;56617.47;;;-146.93;36.00
21664;BME280;10993;52.510;13.456;2023-05-09T04:36:16;56564.84;;;-146.93;35.42
21664;BME280;10993;52.510;13.456;2023-05-09T04:41:16;56512.19;;;-146.93;34.57
21664;BME280;10993;52.510;13.456;2023-05-09T04:46:18;56682.28;;;-146.93;33.72
21664;BME280;10993;52.510;13.456;2023-05-09T04:51:18;56789.59;;;-146.93;32.56
21664;BME280;10993;52.510;13.456;2023-05-09T04:56:19;56832.13;;;-146.93;31.79
21664;BME280;10993;52.510;13.456;2023-05-09T05:01:22;56819.97;;;-146.93;32.21
21664;BME280;10993;52.510;13.456;2023-05-09T05:06:22;56840.22;;;-146.93;31.52
21664;BME280;10993;52.510;13.456;2023-05-09T05:11:22;56957.66;;;-146.93;30.39
21664;BME280;10993;52.510;13.456;2023-05-09T05:16:24;56949.56;;;-146.93;30.25
21664;BME280;10993;52.510;13.456;2023-05-09T05:21:24;57943.94;;;-146.93;30.11
21664;BME280;10993;52.510;13.456;2023-05-09T05:26:25;57139.91;;;-146.93;29.07
21664;BME280;10993;52.510;13.456;2023-05-09T05:31:27;56994.09;;;-146.93;30.11
21664;BME280;10993;52.510;13.456;2023-05-09T05:36:27;56969.81;;;-146.93;30.05
21664;BME280;10993;52.510;13.456;2023-05-09T05:41:28;56996.13;;;-146.93;29.50
21664;BME280;10993;52.510;13.456;2023-05-09T05:46:29;57204.69;;;-146.93;28.53
21664;BME280;10993;52.510;13.456;2023-05-09T05:51:30;57164.19;;;-146.93;29.02
21664;BME280;10993;52.510;13.456;2023-05-09T05:56:30;57121.69;;;-146.93;28.63
21664;BME280;10993;52.510;13.456;2023-05-09T06:01:32;57208.75;;;-146.93;28.10
21664;BME280;10993;52.510;13.456;2023-05-09T06:06:32;57188.50;;;-146.93;28.22
21664;BME280;10993;52.510;13.456;2023-05-09T06:11:33;57334.31;;;-146.93;27.32
21664;BME280;10993;52.510;13.456;2023-05-09T06:16:34;57492.28;;;-146.93;26.13
21664;BME280;10993;52.510;13.456;2023-05-09T06:21:35;57305.97;;;-146.93;27.40
21664;BME280;10993;52.510;13.456;2023-05-09T06:26:35;57486.19;;;-146.93;26.54
21664;BME280;10993;52.510;13.456;2023-05-09T06:31:37;57688.72;;;-146.93;26.04
21664;BME280;10993;52.510;13.456;2023-05-09T06:36:39;57307.97;;;-146.93;27.46
21664;BME280;10993;52.510;13.456;2023-05-09T06:41:39;57623.91;;;-146.93;26.58
21664;BME280;10993;52.510;13.456;2023-05-09T06:46:41;58006.72;;;-146.93;25.10
21664;BME280;10993;52.510;13.456;2023-05-09T06:51:43;57395.06;;;-146.93;26.97
21664;BME280;10993;52.510;13.456;2023-05-09T06:56:43;57170.28;;;-146.93;28.19
21664;BME280;10993;52.510;13.456;2023-05-09T07:01:45;57058.91;;;-146.93;29.22
21664;BME280;10993;52.510;13.456;2023-05-09T07:06:45;57069.03;;;-146.93;28.93
21664;BME280;10993;52.510;13.456;2023-05-09T07:11:46;57131.81;;;-146.93;27.48
21664;BME280;10993;52.510;13.456;2023-05-09T07:16:47;57263.44;;;-146.93;27.82
21664;BME280;10993;52.510;13.456;2023-05-09T07:21:48;57522.66;;;-146.93;26.45
21664;BME280;10993;52.510;13.456;2023-05-09T07:26:48;57318.09;;;-146.93;26.91
21664;BME280;10993;52.510;13.456;2023-05-09T07:31:50;57164.19;;;-146.93;27.41
21664;BME280;10993;52.510;13.456;2023-05-09T07:36:50;57113.56;;;-146.93;27.28
21664;BME280;10993;52.510;13.456;2023-05-09T07:41:51;57269.50;;;-146.93;26.91
21664;BME280;10993;52.510;13.456;2023-05-09T07:46:52;57419.38;;;-146.93;25.54
21664;BME280;10993;52.510;13.456;2023-05-09T07:51:54;57632.03;;;-146.93;25.65
21664;BME280;10993;52.510;13.456;2023-05-09T07:56:54;57595.56;;;-146.93;25.34
21664;BME280;10993;52.510;13.456;2023-05-09T12:06:29;57474.06;;;-146.93;24.95
21664;BME280;10993;52.510;13.456;2023-05-09T12:11:32;57291.78;;;-146.93;25.09
21664;BME280;10993;52.510;13.456;2023-05-09T12:16:34;57176.34;;;-146.93;25.73
21664;BME280;10993;52.510;13.456;2023-05-09T12:21:35;57229.00;;;-146.93;25.68
21664;BME280;10993;52.510;13.456;2023-05-09T12:26:36;56933.34;;;-146.93;25.95
21664;BME280;10993;52.510;13.456;2023-05-09T12:31:36;57143.94;;;-146.93;26.11
21664;BME280;10993;52.510;13.456;2023-05-09T12:36:38;57184.44;;;-146.93;26.18
21664;BME280;10993;52.510;13.456;2023-05-09T12:41:42;57212.81;;;-146.93;26.04
21664;BME280;10993;52.510;13.456;2023-05-09T12:46:52;57164.19;;;-146.93;26.14
21664;BME280;10993;52.510;13.456;2023-05-09T12:51:55;57125.72;;;-146.93;26.28
21664;BME280;10993;52.510;13.456;2023-05-09T12:56:57;57160.16;;;-146.93;26.12
21664;BME280;10993;52.510;13.456;2023-05-09T13:01:59;57075.09;;;-146.93;26.49
21664;BME280;10993;52.510;13.456;2023-05-09T13:07:07;57251.28;;;-146.93;26.15
21664;BME280;10993;52.510;13.456;2023-05-09T13:12:08;57253.31;;;-146.93;25.87
21664;BME280;10993;52.510;13.456;2023-05-09T13:17:09;57255.34;;;-146.93;25.56
21664;BME280;10993;52.510;13.456;2023-05-09T13:22:10;58156.63;;;-146.93;25.97
21664;BME280;10993;52.510;13.456;2023-05-09T13:27:11;57283.69;;;-146.93;26.10
21664;BME280;10993;52.510;13.456;2023-05-09T13:32:12;57279.63;;;-146.93;25.75
21664;BME280;10993;52.510;13.456;2023-05-09T13:37:14;57318.09;;;-146.93;25.84
21664;BME280;10993;52.510;13.456;2023-05-09T13:42:14;57202.69;;;-146.93;26.21
21664;BME280;10993;52.510;13.456;2023-05-09T13:47:15;57281.66;;;-146.93;25.94
21664;BME280;10993;52.510;13.456;2023-05-09T13:52:17;57176.34;;;-146.93;26.07
21664;BME280;10993;52.510;13.456;2023-05-09T13:57:17;57261.41;;;-146.93;25.88
21664;BME280;10993;52.510;13.456;2023-05-09T14:02:17;57305.97;;;-146.93;25.87
21664;BME280;10993;52.510;13.456;2023-05-09T14:07:19;57172.31;;;-146.93;26.15
21664;BME280;10993;52.510;13.456;2023-05-09T14:12:20;57305.97;;;-146.93;25.76
21664;BME280;10993;52.510;13.456;2023-05-09T14:17:21;57245.22;;;-146.93;25.54
21664;BME280;10993;52.510;13.456;2023-05-09T14:22:22;57184.44;;;-146.93;25.67
21664;BME280;10993;52.510;13.456;2023-05-09T14:27:23;57287.72;;;-146.93;25.67
21664;BME280;10993;52.510;13.456;2023-05-09T14:32:24;57231.03;;;-146.93;25.84
21664;BME280;10993;52.510;13.456;2023-05-09T14:37:25;57293.81;;;-146.93;25.96
21664;BME280;10993;52.510;13.456;2023-05-09T14:42:26;57305.97;;;-146.93;25.70
21664;BME280;10993;52.510;13.456;2023-05-09T14:47:26;57261.41;;;-146.93;25.76
21664;BME280;10993;52.510;13.456;2023-05-09T14:52:28;57358.63;;;-146.93;25.86
21664;BME280;10993;52.510;13.456;2023-05-09T14:57:28;57285.72;;;-146.93;25.70
21664;BME280;10993;52.510;13.456;2023-05-09T15:02:28;57273.56;;;-146.93;25.94
21664;BME280;10993;52.510;13.456;2023-05-09T15:07:30;57293.81;;;-146.93;25.86
21664;BME280;10993;52.510;13.456;2023-05-09T15:12:30;57314.06;;;-146.93;25.76
21664;BME280;10993;52.510;13.456;2023-05-09T15:17:31;57259.38;;;-146.93;25.71
21664;BME280;10993;52.510;13.456;2023-05-09T15:22:32;57326.22;;;-146.93;25.40
21664;BME280;10993;52.510;13.456;2023-05-09T15:27:33;57332.28;;;-146.93;25.91
21664;BME280;10993;52.510;13.456;2023-05-09T15:32:35;57263.44;;;-146.93;26.28
21664;BME280;10993;52.510;13.456;2023-05-09T15:37:37;57293.81;;;-146.93;26.40
21664;BME280;10993;52.510;13.456;2023-05-09T15:42:37;57346.47;;;-146.93;26.19
21664;BME280;10993;52.510;13.456;2023-05-09T15:47:38;57303.94;;;-146.93;25.71
21664;BME280;10993;52.510;13.456;2023-05-09T15:52:40;57237.09;;;-146.93;25.96
21664;BME280;10993;52.510;13.456;2023-05-09T15:57:44;57307.97;;;-146.93;26.19
21664;BME280;10993;52.510;13.456;2023-05-09T16:02:47;57415.31;;;-146.93;25.93
21664;BME280;10993;52.510;13.456;2023-05-09T16:07:48;57249.25;;;-146.93;26.08
21664;BME280;10993;52.510;13.456;2023-05-09T16:12:52;57184.44;;;-146.93;26.28
21664;BME280;10993;52.510;13.456;2023-05-09T16:17:52;57287.72;;;-146.93;26.30
21664;BME280;10993;52.510;13.456;2023-05-09T16:22:54;57249.25;;;-146.93;26.45
21664;BME280;10993;52.510;13.456;2023-05-09T16:27:54;57220.91;;;-146.93;26.65
21664;BME280;10993;52.510;13.456;2023-05-09T16:32:54;57224.97;;;-146.93;26.45
21664;BME280;10993;52.510;13.456;2023-05-09T16:37:56;57210.78;;;-146.93;26.83
21664;BME280;10993;52.510;13.456;2023-05-09T16:42:59;57241.16;;;-146.93;26.96
21664;BME280;10993;52.510;13.456;2023-05-09T16:48:00;57301.91;;;-146.93;26.98
21664;BME280;10993;52.510;13.456;2023-05-09T16:53:02;57224.97;;;-146.93;26.96
21664;BME280;10993;52.510;13.456;2023-05-09T16:58:03;57253.31;;;-146.93;26.79
21664;BME280;10993;52.510;13.456;2023-05-09T17:03:04;57154.06;;;-146.93;27.22
21664;BME280;10993;52.510;13.456;2023-05-09T17:08:05;57192.56;;;-146.93;27.20
21664;BME280;10993;52.510;13.456;2023-05-09T17:13:06;57162.19;;;-146.93;27.39
21664;BME280;10993;52.510;13.456;2023-05-09T17:18:07;57160.16;;;-146.93;27.64
21664;BME280;10993;52.510;13.456;2023-05-09T17:23:09;57141.94;;;-146.93;27.66
21664;BME280;10993;52.510;13.456;2023-05-09T17:28:09;57143.94;;;-146.93;27.72
21664;BME280;10993;52.510;13.456;2023-05-09T17:33:10;57099.41;;;-146.93;27.65
21664;BME280;10993;52.510;13.456;2023-05-09T17:38:11;57095.34;;;-146.93;27.80
21664;BME280;10993;52.510;13.456;2023-05-09T17:43:12;57107.50;;;-146.93;28.12
21664;BME280;10993;52.510;13.456;2023-05-09T17:48:12;57038.66;;;-146.93;28.25
21664;BME280;10993;52.510;13.456;2023-05-09T17:53:14;57050.81;;;-146.93;28.40
21664;BME280;10993;52.510;13.456;2023-05-09T17:58:15;57046.75;;;-146.93;28.60
21664;BME280;10993;52.510;13.456;2023-05-09T18:03:15;57022.44;;;-146.93;28.88
21664;BME280;10993;52.510;13.456;2023-05-09T18:08:17;57000.19;;;-146.93;28.96
21664;BME280;10993;52.510;13.456;2023-05-09T18:13:17;56963.72;;;-146.93;29.14
21664;BME280;10993;52.510;13.456;2023-05-09T18:18:18;56963.72;;;-146.93;29.33
21664;BME280;10993;52.510;13.456;2023-05-09T18:23:22;56953.59;;;-146.93;29.38
21664;BME280;10993;52.510;13.456;2023-05-09T18:28:24;56967.78;;;-146.93;29.39
21664;BME280;10993;52.510;13.456;2023-05-09T18:33:26;56949.56;;;-146.93;29.31
21664;BME280;10993;52.510;13.456;2023-05-09T18:38:28;56911.09;;;-146.93;29.52
21664;BME280;10993;52.510;13.456;2023-05-09T18:43:34;56977.91;;;-146.93;29.42
21664;BME280;10993;52.510;13.456;2023-05-09T18:48:34;56931.34;;;-146.93;29.83
21664;BME280;10993;52.510;13.456;2023-05-09T18:53:36;56817.94;;;-146.93;29.89
21664;BME280;10993;52.510;13.456;2023-05-09T18:58:37;56862.47;;;-146.93;29.88
21664;BME280;10993;52.510;13.456;2023-05-09T19:03:37;56763.28;;;-146.93;30.02
21664;BME280;10993;52.510;13.456;2023-05-09T19:08:46;56807.81;;;-146.93;29.94
21664;BME280;10993;52.510;13.456;2023-05-09T19:13:47;56880.72;;;-146.93;29.99
21664;BME280;10993;52.510;13.456;2023-05-09T19:18:48;56872.59;;;-146.93;29.90
21664;BME280;10993;52.510;13.456;2023-05-09T19:23:50;56884.75;;;-146.93;30.14
21664;BME280;10993;52.510;13.456;2023-05-09T19:28:50;56862.47;;;-146.93;30.25
21664;BME280;10993;52.510;13.456;2023-05-09T19:33:51;56791.63;;;-146.93;30.11
21664;BME280;10993;52.510;13.456;2023-05-09T19:38:52;56706.56;;;-146.93;30.29
21664;BME280;10993;52.510;13.456;2023-05-09T19:43:53;56783.50;;;-146.93;30.42
21664;BME280;10993;52.510;13.456;2023-05-09T19:48:53;56777.44;;;-146.93;30.80
21664;BME280;10993;52.510;13.456;2023-05-09T19:53:57;56795.66;;;-146.93;31.06
21664;BME280;10993;52.510;13.456;2023-05-09T19:58:57;56738.97;;;-146.93;31.06
21664;BME280;10993;52.510;13.456;2023-05-09T20:03:58;56759.22;;;-146.93;31.08
21664;BME280;10993;52.510;13.456;2023-05-09T20:08:59;56660.00;;;-146.93;31.39
21664;BME280;10993;52.510;13.456;2023-05-09T20:14:00;56720.75;;;-146.93;31.42
21664;BME280;10993;52.510;13.456;2023-05-09T20:19:00;56718.72;;;-146.93;31.81
21664;BME280;10993;52.510;13.456;2023-05-09T20:24:02;56734.91;;;-146.93;31.76
21664;BME280;10993;52.510;13.456;2023-05-09T20:29:03;56704.53;;;-146.93;31.70
21664;BME280;10993;52.510;13.456;2023-05-09T20:34:04;56708.59;;;-146.93;31.92
21664;BME280;10993;52.510;13.456;2023-05-09T20:39:05;56698.47;;;-146.93;32.12
21664;BME280;10993;52.510;13.456;2023-05-09T20:44:06;56605.34;;;-146.93;32.22
21664;BME280;10993;52.510;13.456;2023-05-09T20:49:06;56668.09;;;-146.93;32.44
21664;BME280;10993;52.510;13.456;2023-05-09T20:54:08;56751.13;;;-146.93;32.59
21664;BME280;10993;52.510;13.456;2023-05-09T20:59:08;56672.16;;;-146.93;32.98
21664;BME280;10993;52.510;13.456;2023-05-09T21:04:09;56662.03;;;-146.93;33.19
21664;BME280;10993;52.510;13.456;2023-05-09T21:09:10;56680.25;;;-146.93;33.35
21664;BME280;10993;52.510;13.456;2023-05-09T21:14:11;56589.13;;;-146.93;33.40
21664;BME280;10993;52.510;13.456;2023-05-09T21:19:11;56635.72;;;-146.93;33.71
21664;BME280;10993;52.510;13.456;2023-05-09T21:24:13;56662.03;;;-146.93;34.02
21664;BME280;10993;52.510;13.456;2023-05-09T21:29:13;56651.91;;;-146.93;34.33
21664;BME280;10993;52.510;13.456;2023-05-09T21:34:13;56649.88;;;-146.93;34.36
21664;BME280;10993;52.510;13.456;2023-05-09T21:39:15;56651.91;;;-146.93;34.58
21664;BME280;10993;52.510;13.456;2023-05-09T21:44:15;57565.19;;;-146.93;34.89
21664;BME280;10993;52.510;13.456;2023-05-09T21:49:16;56491.94;;;-146.93;35.01
21664;BME280;10993;52.510;13.456;2023-05-09T21:54:18;56609.38;;;-146.93;35.40
21664;BME280;10993;52.510;13.456;2023-05-09T21:59:18;56506.13;;;-146.93;35.62
21664;BME280;10993;52.510;13.456;2023-05-09T22:04:21;56793.63;;;-146.93;35.75
21664;BME280;10993;52.510;13.456;2023-05-09T22:09:22;56603.31;;;-146.93;35.97
21664;BME280;10993;52.510;13.456;2023-05-09T22:14:23;56653.94;;;-146.93;36.22
21664;BME280;10993;52.510;13.456;2023-05-09T22:19:23;56621.53;;;-146.93;36.44
21664;BME280;10993;52.510;13.456;2023-05-09T22:24:25;56601.28;;;-146.93;36.65
21664;BME280;10993;52.510;13.456;2023-05-09T22:29:26;56589.13;;;-146.93;37.01
21664;BME280;10993;52.510;13.456;2023-05-09T22:34:27;56427.16;;;-146.93;37.40
21664;BME280;10993;52.510;13.456;2023-05-09T22:39:28;56526.38;;;-146.93;37.54
21664;BME280;10993;52.510;13.456;2023-05-09T22:44:29;56544.59;;;-146.93;37.87
21664;BME280;10993;52.510;13.456;2023-05-09T22:49:31;56536.50;;;-146.93;38.07
21664;BME280;10993;52.510;13.456;2023-05-09T22:54:33;56546.63;;;-146.93;38.54
21664;BME280;10993;52.510;13.456;2023-05-09T22:59:33;56526.38;;;-146.93;39.09
21664;BME280;10993;52.510;13.456;2023-05-09T23:04:34;56514.22;;;-146.93;39.19
21664;BME280;10993;52.510;13.456;2023-05-09T23:09:35;56538.53;;;-146.93;39.34
21664;BME280;10993;52.510;13.456;2023-05-09T23:14:36;56570.91;;;-146.93;39.53
21664;BME280;10993;52.510;13.456;2023-05-09T23:19:36;56524.34;;;-146.93;39.97
21664;BME280;10993;52.510;13.456;2023-05-09T23:24:38;56451.47;;;-146.93;40.14
21664;BME280;10993;52.510;13.456;2023-05-09T23:29:38;56439.31;;;-146.93;40.73
21664;BME280;10993;52.510;13.456;2023-05-09T23:34:39;56502.06;;;-146.93;40.95
21664;BME280;10993;52.510;13.456;2023-05-09T23:39:40;56327.97;;;-146.93;41.10
21664;BME280;10993;52.510;13.456;2023-05-09T23:44:41;56463.59;;;-146.93;41.40
21664;BME280;10993;52.510;13.456;2023-05-09T23:49:41;56356.31;;;-146.93;41.99
21664;BME280;10993;52.510;13.456;2023-05-09T23:54:43;56508.16;;;-146.93;41.72
21664;BME280;10993;52.510;13.456;2023-05-09T23:59:43;56463.59;;;-146.93;42.11
